createdAt,value
2019-02-20T00:00:17.331Z,16.00
2019-02-20T00:02:23.840Z,16.33
2019-02-20T00:04:28.793Z,10.97
2019-02-20T00:06:33.852Z,17.33
2019-02-20T00:08:38.542Z,11.27
2019-02-20T00:10:43.291Z,11.80
2019-02-20T00:12:48.194Z,8.60
2019-02-20T00:14:53.122Z,10.23
2019-02-20T00:16:57.952Z,15.77
2019-02-20T00:19:02.759Z,15.80
2019-02-20T00:21:07.487Z,14.93
2019-02-20T00:23:12.233Z,12.20
2019-02-20T00:25:16.988Z,16.90
2019-02-20T00:27:22.004Z,10.97
2019-02-20T00:29:26.766Z,13.20
2019-02-20T00:31:31.576Z,12.47
2019-02-20T00:33:36.356Z,10.97
2019-02-20T00:35:41.188Z,11.43
2019-02-20T00:37:45.904Z,11.73
2019-02-20T00:39:50.755Z,8.90
2019-02-20T00:41:55.530Z,11.13
2019-02-20T00:44:17.007Z,9.50
2019-02-20T00:46:36.142Z,10.17
2019-02-20T00:48:59.898Z,11.20
2019-02-20T00:51:23.727Z,11.27
2019-02-20T00:53:32.742Z,10.20
2019-02-20T00:55:38.856Z,9.50
2019-02-20T00:57:43.580Z,12.30
2019-02-20T00:59:48.331Z,8.70
2019-02-20T01:01:53.242Z,8.40
2019-02-20T01:03:57.934Z,9.37
2019-02-20T01:06:04.892Z,7.17
2019-02-20T01:08:09.297Z,9.07
2019-02-20T01:10:14.004Z,8.27
2019-02-20T01:12:18.695Z,11.13
2019-02-20T01:14:23.446Z,9.00
2019-02-20T01:16:28.212Z,10.27
2019-02-20T01:18:33.047Z,7.83
2019-02-20T01:20:38.107Z,9.97
2019-02-20T01:22:42.957Z,8.77
2019-02-20T01:24:47.676Z,7.80
2019-02-20T01:26:52.480Z,8.43
2019-02-20T01:28:57.297Z,10.13
2019-02-20T01:31:02.135Z,12.80
2019-02-20T01:33:07.772Z,6.83
2019-02-20T01:35:12.614Z,9.20
2019-02-20T01:37:17.327Z,12.07
2019-02-20T01:39:22.264Z,10.43
2019-02-20T01:41:27.191Z,13.33
2019-02-20T01:43:31.932Z,14.57
2019-02-20T01:45:36.657Z,12.53
2019-02-20T01:47:41.496Z,11.87
2019-02-20T01:49:46.282Z,17.67
2019-02-20T01:51:51.236Z,12.77
2019-02-20T01:53:55.987Z,11.70
2019-02-20T01:56:00.870Z,10.77
2019-02-20T01:58:05.704Z,12.13
2019-02-20T02:00:10.823Z,9.37
2019-02-20T02:02:15.660Z,11.90
2019-02-20T02:04:20.532Z,13.63
2019-02-20T02:06:25.410Z,9.77
2019-02-20T02:08:30.133Z,12.10
2019-02-20T02:10:34.990Z,8.50
2019-02-20T02:12:39.737Z,13.73
2019-02-20T02:14:44.432Z,9.33
2019-02-20T02:16:49.237Z,12.10
2019-02-20T02:18:53.966Z,8.63
2019-02-20T02:20:58.799Z,8.90
2019-02-20T02:23:03.637Z,9.03
2019-02-20T02:25:08.442Z,7.37
2019-02-20T02:27:13.258Z,9.67
2019-02-20T02:29:18.091Z,7.70
2019-02-20T02:31:22.809Z,14.07
2019-02-20T02:33:27.516Z,13.80
2019-02-20T02:35:32.247Z,10.03
2019-02-20T02:37:37.042Z,12.80
2019-02-20T02:39:41.817Z,12.07
2019-02-20T02:41:46.528Z,8.40
2019-02-20T02:43:51.208Z,13.77
2019-02-20T02:45:56.078Z,9.77
2019-02-20T02:48:00.932Z,9.17
2019-02-20T02:50:06.059Z,9.10
2019-02-20T02:52:11.853Z,14.47
2019-02-20T02:54:16.618Z,11.27
2019-02-20T02:56:21.686Z,8.77
2019-02-20T02:58:26.481Z,11.93
2019-02-20T03:00:31.209Z,8.97
2019-02-20T03:02:36.089Z,10.27
2019-02-20T03:04:40.804Z,8.07
2019-02-20T03:06:45.688Z,10.10
2019-02-20T03:08:50.523Z,9.03
2019-02-20T03:10:55.276Z,13.17
2019-02-20T03:13:00.066Z,8.63
2019-02-20T03:15:05.704Z,10.27
2019-02-20T03:17:10.457Z,12.43
2019-02-20T03:19:15.242Z,10.03
2019-02-20T03:21:20.044Z,11.07
2019-02-20T03:23:24.785Z,11.10
2019-02-20T03:25:29.633Z,9.07
2019-02-20T03:27:34.323Z,8.73
2019-02-20T03:29:39.097Z,10.37
2019-02-20T03:31:44.760Z,9.33
2019-02-20T03:33:49.474Z,9.23
2019-02-20T03:35:54.152Z,10.27
2019-02-20T03:37:59.001Z,8.27
2019-02-20T03:40:03.916Z,8.37
2019-02-20T03:42:08.771Z,9.97
2019-02-20T03:44:13.476Z,10.00
2019-02-20T03:46:18.279Z,12.87
2019-02-20T03:48:23.032Z,8.57
2019-02-20T03:50:29.162Z,6.60
2019-02-20T03:52:33.884Z,8.90
2019-02-20T03:54:38.727Z,9.17
2019-02-20T03:56:43.558Z,10.60
2019-02-20T03:58:48.279Z,10.77
2019-02-20T04:00:53.490Z,7.97
2019-02-20T04:02:58.307Z,7.90
2019-02-20T04:05:04.979Z,6.70
2019-02-20T04:07:09.759Z,8.47
2019-02-20T04:09:14.645Z,8.00
2019-02-20T04:11:19.348Z,8.13
2019-02-20T04:13:24.105Z,8.93
2019-02-20T04:15:29.240Z,9.57
2019-02-20T04:17:34.075Z,8.93
2019-02-20T04:19:38.787Z,8.77
2019-02-20T04:21:43.529Z,6.80
2019-02-20T04:23:48.347Z,7.83
2019-02-20T04:25:53.249Z,8.93
2019-02-20T04:27:58.007Z,8.10
2019-02-20T04:30:02.788Z,8.17
2019-02-20T04:32:07.517Z,9.97
2019-02-20T04:34:12.383Z,9.10
2019-02-20T04:36:17.251Z,8.90
2019-02-20T04:38:22.132Z,8.47
2019-02-20T04:40:27.059Z,10.00
2019-02-20T04:42:31.845Z,7.73
2019-02-20T04:44:36.620Z,10.17
2019-02-20T04:46:41.423Z,9.27
2019-02-20T04:48:46.154Z,6.97
2019-02-20T04:50:50.852Z,9.93
2019-02-20T04:52:55.710Z,10.27
2019-02-20T04:55:00.428Z,9.17
2019-02-20T04:57:05.249Z,9.63
2019-02-20T04:59:09.968Z,10.13
2019-02-20T05:01:14.742Z,8.87
2019-02-20T05:03:19.478Z,9.93
2019-02-20T05:05:25.334Z,8.97
2019-02-20T05:07:30.070Z,7.73
2019-02-20T05:09:35.053Z,9.67
2019-02-20T05:11:41.504Z,9.23
2019-02-20T05:13:46.314Z,9.87
2019-02-20T05:15:52.102Z,6.37
2019-02-20T05:17:56.811Z,6.73
2019-02-20T05:20:01.496Z,9.40
2019-02-20T05:22:07.752Z,9.33
2019-02-20T05:24:12.613Z,10.30
2019-02-20T05:26:17.527Z,8.70
2019-02-20T05:28:22.242Z,8.77
2019-02-20T05:30:27.020Z,8.37
2019-02-20T05:32:31.928Z,6.87
2019-02-20T05:34:36.721Z,11.43
2019-02-20T05:36:41.518Z,11.13
2019-02-20T05:38:46.287Z,8.73
2019-02-20T05:40:51.224Z,7.17
2019-02-20T05:42:55.880Z,6.90
2019-02-20T05:45:00.669Z,9.10
2019-02-20T05:47:05.576Z,8.93
2019-02-20T05:49:10.523Z,13.30
2019-02-20T05:51:15.256Z,10.50
2019-02-20T05:53:20.004Z,12.07
2019-02-20T05:55:24.803Z,13.93
2019-02-20T05:57:29.516Z,9.80
2019-02-20T05:59:37.261Z,9.60
2019-02-20T06:01:42.038Z,6.20
2019-02-20T06:03:46.873Z,5.83
2019-02-20T06:05:51.709Z,8.40
2019-02-20T06:07:56.449Z,7.83
2019-02-20T06:10:01.225Z,7.90
2019-02-20T06:12:06.019Z,6.60
2019-02-20T06:14:13.082Z,6.17
2019-02-20T06:16:17.813Z,6.10
2019-02-20T06:18:22.606Z,5.90
2019-02-20T06:20:30.815Z,11.07
2019-02-20T06:22:36.644Z,6.63
2019-02-20T06:24:55.351Z,6.17
2019-02-20T06:27:00.942Z,7.47
2019-02-20T06:29:05.663Z,6.03
2019-02-20T06:31:10.413Z,7.30
2019-02-20T06:33:15.263Z,7.67
2019-02-20T06:35:19.997Z,5.33
2019-02-20T06:37:24.778Z,8.37
2019-02-20T06:39:29.681Z,9.23
2019-02-20T06:41:39.261Z,9.43
2019-02-20T06:43:40.991Z,9.37
2019-02-20T06:45:45.917Z,8.30
2019-02-20T06:47:51.539Z,6.07
2019-02-20T06:49:56.436Z,8.47
2019-02-20T06:52:01.172Z,7.10
2019-02-20T06:54:05.895Z,7.60
2019-02-20T06:56:10.683Z,8.73
2019-02-20T06:58:15.588Z,7.50
2019-02-20T07:00:20.545Z,9.90
2019-02-20T07:02:25.626Z,5.30
2019-02-20T07:04:30.419Z,10.03
2019-02-20T07:06:59.674Z,13.27
2019-02-20T07:09:34.306Z,8.93
2019-02-20T07:12:02.231Z,9.67
2019-02-20T07:14:33.936Z,8.30
2019-02-20T07:17:02.921Z,8.53
2019-02-20T07:19:25.070Z,8.03
2019-02-20T07:21:55.164Z,7.13
2019-02-20T07:24:17.928Z,13.77
2019-02-20T07:27:01.269Z,12.80
2019-02-20T07:29:31.571Z,13.27
2019-02-20T07:31:36.423Z,8.03
2019-02-20T07:33:43.081Z,12.20
2019-02-20T07:35:47.789Z,9.73
2019-02-20T07:37:52.609Z,13.83
2019-02-20T07:39:57.560Z,9.13
2019-02-20T07:42:02.420Z,13.50
2019-02-20T07:44:07.260Z,8.90
2019-02-20T07:46:12.229Z,9.07
2019-02-20T07:48:17.544Z,12.37
2019-02-20T07:50:23.587Z,14.53
2019-02-20T07:52:28.957Z,16.97
2019-02-20T07:54:33.828Z,14.40
2019-02-20T07:56:38.732Z,22.57
2019-02-20T07:58:43.490Z,23.33
2019-02-20T08:00:48.641Z,17.07
2019-02-20T08:02:53.417Z,29.97
2019-02-20T08:04:58.420Z,18.40
2019-02-20T08:07:03.247Z,19.83
2019-02-20T08:09:13.556Z,15.23
2019-02-20T08:11:18.316Z,20.13
2019-02-20T08:13:23.091Z,17.40
2019-02-20T08:15:27.878Z,15.30
2019-02-20T08:17:32.811Z,14.10
2019-02-20T08:19:37.768Z,12.07
2019-02-20T08:21:42.559Z,20.60
2019-02-20T08:23:47.331Z,17.80
2019-02-20T08:25:52.315Z,14.60
2019-02-20T08:27:57.082Z,14.23
2019-02-20T08:30:01.867Z,19.07
2019-02-20T08:32:07.680Z,18.00
2019-02-20T08:34:12.499Z,15.20
2019-02-20T08:36:17.377Z,18.50
2019-02-20T08:38:22.196Z,15.33
2019-02-20T08:40:27.049Z,20.00
2019-02-20T08:42:31.770Z,10.27
2019-02-20T08:44:36.571Z,10.30
2019-02-20T08:46:41.451Z,11.57
2019-02-20T08:48:46.314Z,10.93
2019-02-20T08:50:51.183Z,10.33
2019-02-20T08:52:56.598Z,12.53
2019-02-20T08:55:01.349Z,11.33
2019-02-20T08:57:06.139Z,8.67
2019-02-20T08:59:10.892Z,10.23
2019-02-20T09:01:15.716Z,10.27
2019-02-20T09:03:20.405Z,9.40
2019-02-20T09:05:29.474Z,10.33
2019-02-20T09:07:34.847Z,10.03
2019-02-20T09:09:40.546Z,9.07
2019-02-20T09:11:45.661Z,7.40
2019-02-20T09:13:51.617Z,8.33
2019-02-20T09:15:56.746Z,8.17
2019-02-20T09:18:01.583Z,8.87
2019-02-20T09:20:07.407Z,11.60
2019-02-20T09:22:12.228Z,9.77
2019-02-20T09:24:17.047Z,8.43
2019-02-20T09:26:22.367Z,10.53
2019-02-20T09:28:27.181Z,6.37
2019-02-20T09:30:32.661Z,6.83
2019-02-20T09:32:38.167Z,10.10
2019-02-20T09:34:43.928Z,8.70
2019-02-20T09:36:48.702Z,10.77
2019-02-20T09:38:53.492Z,10.00
2019-02-20T09:40:58.317Z,8.53
2019-02-20T09:43:03.246Z,7.20
2019-02-20T09:45:08.434Z,9.10
2019-02-20T09:47:13.506Z,9.70
2019-02-20T09:49:18.417Z,9.60
2019-02-20T09:51:23.472Z,8.57
2019-02-20T09:53:28.435Z,9.20
2019-02-20T09:55:33.328Z,11.23
2019-02-20T09:57:38.338Z,6.87
2019-02-20T09:59:43.120Z,8.47
2019-02-20T10:01:48.112Z,10.20
2019-02-20T10:03:52.986Z,6.73
2019-02-20T10:05:57.847Z,7.43
2019-02-20T10:08:04.476Z,10.93
2019-02-20T10:10:09.662Z,9.97
2019-02-20T10:12:15.051Z,9.50
2019-02-20T10:14:20.002Z,12.87
2019-02-20T10:16:24.737Z,8.37
2019-02-20T10:18:29.528Z,6.63
2019-02-20T10:20:34.288Z,10.07
2019-02-20T10:22:39.177Z,9.47
2019-02-20T10:24:44.036Z,11.13
2019-02-20T10:27:00.210Z,8.60
2019-02-20T10:28:58.670Z,6.90
2019-02-20T10:31:03.700Z,4.23
2019-02-20T10:33:08.534Z,10.17
2019-02-20T10:35:13.328Z,7.93
2019-02-20T10:37:18.137Z,11.80
2019-02-20T10:39:22.905Z,9.87
2019-02-20T10:41:27.610Z,10.63
2019-02-20T10:43:32.383Z,9.47
2019-02-20T10:45:37.749Z,12.80
2019-02-20T10:47:42.703Z,12.47
2019-02-20T10:49:47.445Z,10.07
2019-02-20T10:51:54.181Z,11.17
2019-02-20T10:53:59.547Z,11.23
2019-02-20T10:56:09.490Z,14.47
2019-02-20T10:58:10.874Z,12.13
2019-02-20T11:00:24.069Z,11.20
2019-02-20T11:02:26.877Z,17.23
2019-02-20T11:04:31.614Z,10.03
2019-02-20T11:06:36.397Z,9.00
2019-02-20T11:08:41.227Z,14.27
2019-02-20T11:10:48.682Z,10.20
2019-02-20T11:13:00.647Z,10.77
2019-02-20T11:15:06.897Z,11.40
2019-02-20T11:17:12.005Z,6.23
2019-02-20T11:19:16.691Z,12.20
2019-02-20T11:21:21.510Z,9.40
2019-02-20T11:23:26.228Z,12.43
2019-02-20T11:25:31.344Z,8.10
2019-02-20T11:27:39.624Z,8.60
2019-02-20T11:29:46.211Z,8.73
2019-02-20T11:31:51.007Z,11.03
2019-02-20T11:33:55.929Z,7.60
2019-02-20T11:36:00.653Z,8.00
2019-02-20T11:38:05.477Z,8.97
2019-02-20T11:40:10.411Z,9.43
2019-02-20T11:42:15.131Z,7.77
2019-02-20T11:44:21.267Z,10.50
2019-02-20T11:46:26.241Z,11.27
2019-02-20T11:48:31.094Z,8.77
2019-02-20T11:50:35.912Z,5.87
2019-02-20T11:52:41.339Z,7.73
2019-02-20T11:54:46.051Z,8.50
2019-02-20T11:56:50.754Z,4.67
2019-02-20T11:58:55.548Z,8.50
2019-02-20T12:01:00.355Z,7.17
2019-02-20T12:03:05.452Z,7.27
2019-02-20T12:05:11.377Z,8.93
2019-02-20T12:07:16.177Z,5.20
2019-02-20T12:09:21.052Z,8.33
2019-02-20T12:11:25.885Z,5.50
2019-02-20T12:13:30.572Z,5.73
2019-02-20T12:15:35.528Z,4.70
2019-02-20T12:17:40.363Z,8.73
2019-02-20T12:19:45.386Z,5.60
2019-02-20T12:21:51.401Z,7.53
2019-02-20T12:23:56.384Z,5.47
2019-02-20T12:26:05.170Z,8.17
2019-02-20T12:28:09.967Z,7.47
2019-02-20T12:30:14.887Z,4.47
2019-02-20T12:32:19.846Z,7.47
2019-02-20T12:34:24.776Z,4.10
2019-02-20T12:36:29.745Z,5.93
2019-02-20T12:38:34.568Z,6.27
2019-02-20T12:40:39.493Z,7.03
2019-02-20T12:42:44.316Z,6.87
2019-02-20T12:44:49.094Z,4.90
2019-02-20T12:46:53.968Z,5.87
2019-02-20T12:49:00.269Z,7.60
2019-02-20T12:51:05.076Z,5.83
2019-02-20T12:53:09.785Z,5.47
2019-02-20T12:55:14.581Z,5.17
2019-02-20T12:57:19.534Z,4.93
2019-02-20T12:59:24.473Z,5.10
2019-02-20T13:01:29.401Z,6.67
2019-02-20T13:03:34.243Z,7.57
2019-02-20T13:05:39.163Z,6.90
2019-02-20T13:07:44.251Z,4.70
2019-02-20T13:09:50.226Z,5.53
2019-02-20T13:11:55.173Z,6.97
2019-02-20T13:14:00.932Z,8.57
2019-02-20T13:16:09.571Z,3.73
2019-02-20T13:18:12.339Z,6.10
2019-02-20T13:20:17.176Z,5.30
2019-02-20T13:22:22.023Z,6.57
2019-02-20T13:24:29.833Z,5.10
2019-02-20T13:26:34.794Z,6.80
2019-02-20T13:28:39.586Z,4.90
2019-02-20T13:30:44.524Z,3.97
2019-02-20T13:32:50.988Z,5.50
2019-02-20T13:34:55.921Z,6.10
2019-02-20T13:37:00.748Z,4.07
2019-02-20T13:39:06.194Z,3.43
2019-02-20T13:41:12.776Z,3.63
2019-02-20T13:43:17.577Z,6.57
2019-02-20T13:45:22.776Z,3.53
2019-02-20T13:47:27.669Z,3.50
2019-02-20T13:49:34.181Z,4.57
2019-02-20T13:51:39.033Z,4.40
2019-02-20T13:53:46.434Z,3.90
2019-02-20T13:55:50.482Z,4.27
2019-02-20T13:57:56.594Z,4.50
2019-02-20T14:00:01.534Z,4.17
2019-02-20T14:02:08.242Z,4.13
2019-02-20T14:04:13.132Z,4.70
2019-02-20T14:06:18.262Z,4.60
2019-02-20T14:08:23.142Z,3.27
2019-02-20T14:10:28.208Z,3.70
2019-02-20T14:12:33.154Z,4.60
2019-02-20T14:14:38.132Z,3.60
2019-02-20T14:16:42.962Z,5.17
2019-02-20T14:18:49.158Z,4.20
2019-02-20T14:20:54.033Z,4.30
2019-02-20T14:22:59.020Z,5.33
2019-02-20T14:25:04.056Z,3.30
2019-02-20T14:27:11.119Z,3.97
2019-02-20T14:29:15.779Z,4.10
2019-02-20T14:31:20.876Z,4.20
2019-02-20T14:33:25.801Z,4.30
2019-02-20T14:35:31.951Z,4.20
2019-02-20T14:37:36.918Z,2.73
2019-02-20T14:39:41.873Z,5.27
2019-02-20T14:41:46.733Z,5.70
2019-02-20T14:43:51.556Z,3.73
2019-02-20T14:45:56.373Z,4.10
2019-02-20T14:48:01.314Z,7.47
2019-02-20T14:50:06.821Z,4.20
2019-02-20T14:52:12.015Z,5.67
2019-02-20T14:54:16.888Z,4.43
2019-02-20T14:56:24.248Z,4.20
2019-02-20T14:58:29.513Z,3.23
2019-02-20T15:00:34.668Z,5.20
2019-02-20T15:02:40.029Z,3.50
2019-02-20T15:04:44.966Z,4.27
2019-02-20T15:06:49.921Z,6.70
2019-02-20T15:08:54.854Z,2.60
2019-02-20T15:11:00.014Z,3.80
2019-02-20T15:13:04.828Z,2.30
2019-02-20T15:15:10.782Z,3.53
2019-02-20T15:17:17.579Z,3.33
2019-02-20T15:19:23.548Z,4.67
2019-02-20T15:21:31.198Z,4.23
2019-02-20T15:23:36.065Z,3.13
2019-02-20T15:25:41.321Z,3.93
2019-02-20T15:27:46.223Z,3.70
2019-02-20T15:29:51.088Z,3.40
2019-02-20T15:31:55.851Z,4.60
2019-02-20T15:34:00.920Z,3.50
2019-02-20T15:36:06.100Z,2.33
2019-02-20T15:38:14.069Z,4.20
2019-02-20T15:40:18.953Z,2.43
2019-02-20T15:42:23.884Z,3.07
2019-02-20T15:44:28.731Z,4.00
2019-02-20T15:46:33.716Z,3.03
2019-02-20T15:48:38.932Z,3.17
2019-02-20T15:50:43.932Z,2.60
2019-02-20T15:52:49.014Z,3.10
2019-02-20T15:54:54.076Z,3.47
2019-02-20T15:56:58.934Z,3.73
2019-02-20T15:59:07.044Z,2.93
2019-02-20T16:01:15.123Z,3.53
2019-02-20T16:03:20.012Z,3.40
2019-02-20T16:05:24.848Z,3.77
2019-02-20T16:07:31.408Z,4.10
2019-02-20T16:09:38.635Z,3.90
2019-02-20T16:11:50.804Z,3.97
2019-02-20T16:13:55.761Z,2.63
2019-02-20T16:16:00.749Z,2.80
2019-02-20T16:18:05.941Z,5.13
2019-02-20T16:20:12.629Z,2.63
2019-02-20T16:22:17.526Z,4.33
2019-02-20T16:24:22.592Z,3.87
2019-02-20T16:26:29.317Z,3.43
2019-02-20T16:28:34.343Z,2.70
2019-02-20T16:30:39.305Z,2.90
2019-02-20T16:32:44.302Z,3.60
2019-02-20T16:34:50.749Z,3.30
2019-02-20T16:36:55.708Z,3.50
2019-02-20T16:39:00.670Z,4.13
2019-02-20T16:41:13.298Z,2.83
2019-02-20T16:43:21.353Z,2.30
2019-02-20T16:45:29.451Z,3.57
2019-02-20T16:47:34.574Z,3.80
2019-02-20T16:49:39.720Z,3.50
2019-02-20T16:51:44.812Z,3.93
2019-02-20T16:53:53.151Z,2.50
2019-02-20T16:56:02.582Z,4.37
2019-02-20T16:58:08.002Z,2.40
2019-02-20T17:00:22.505Z,2.63
2019-02-20T17:02:39.886Z,3.77
2019-02-20T17:04:46.885Z,3.80
2019-02-20T17:06:58.463Z,2.17
2019-02-20T17:09:05.524Z,4.23
2019-02-20T17:11:11.592Z,4.20
2019-02-20T17:13:17.605Z,5.17
2019-02-20T17:15:28.100Z,3.27
2019-02-20T17:17:39.184Z,5.57
2019-02-20T17:19:55.453Z,3.87
2019-02-20T17:22:05.243Z,5.17
2019-02-20T17:24:10.565Z,11.97
2019-02-20T17:26:18.980Z,4.33
2019-02-20T17:28:30.079Z,5.30
2019-02-20T17:30:35.024Z,4.17
2019-02-20T17:32:40.191Z,7.37
2019-02-20T17:34:57.407Z,4.87
2019-02-20T17:37:14.557Z,5.67
2019-02-20T17:39:36.571Z,6.47
2019-02-20T17:41:55.582Z,5.60
2019-02-20T17:44:01.910Z,5.80
2019-02-20T17:46:11.190Z,16.90
2019-02-20T17:48:20.080Z,8.70
2019-02-20T17:50:30.913Z,4.73
2019-02-20T17:52:36.971Z,8.60
2019-02-20T17:54:45.124Z,10.40
2019-02-20T17:56:52.670Z,7.43
2019-02-20T17:59:11.918Z,7.87
2019-02-20T18:01:26.494Z,10.13
2019-02-20T18:03:37.530Z,11.93
2019-02-20T18:05:48.697Z,7.80
2019-02-20T18:08:10.466Z,6.40
2019-02-20T18:10:37.779Z,8.60
2019-02-20T18:12:55.355Z,11.67
2019-02-20T18:15:03.099Z,9.17
2019-02-20T18:17:12.786Z,10.33
2019-02-20T18:19:22.275Z,8.53
2019-02-20T18:21:27.471Z,10.00
2019-02-20T18:23:34.276Z,8.37
2019-02-20T18:25:41.155Z,6.90
2019-02-20T18:27:46.572Z,8.03
2019-02-20T18:29:59.095Z,6.37
2019-02-20T18:32:11.245Z,5.10
2019-02-20T18:34:24.208Z,7.87
2019-02-20T18:36:39.494Z,3.93
2019-02-20T18:38:52.062Z,6.40
2019-02-20T18:41:03.163Z,1.97
2019-02-20T18:43:10.204Z,2.53
2019-02-20T18:45:19.884Z,2.53
2019-02-20T18:47:27.335Z,3.80
2019-02-20T18:49:38.820Z,2.00
2019-02-20T18:51:43.451Z,3.53
2019-02-20T18:53:48.636Z,2.33
2019-02-20T18:55:58.866Z,5.03
2019-02-20T18:58:04.861Z,2.57
2019-02-20T19:00:12.278Z,1.60
2019-02-20T19:02:22.544Z,2.93
2019-02-20T19:04:27.517Z,4.40
2019-02-20T19:06:38.379Z,5.00
2019-02-20T19:09:02.609Z,3.50
2019-02-20T19:11:15.918Z,3.73
2019-02-20T19:13:52.949Z,6.03
2019-02-20T19:16:26.353Z,5.77
2019-02-20T19:19:10.138Z,4.37
2019-02-20T19:21:26.340Z,2.00
2019-02-20T19:24:09.857Z,1.60
2019-02-20T19:26:38.491Z,3.70
2019-02-20T19:29:11.503Z,2.77
2019-02-20T19:31:53.063Z,2.03
2019-02-20T19:34:40.244Z,2.30
2019-02-20T19:37:16.694Z,0.87
2019-02-20T19:39:53.989Z,1.67
2019-02-20T19:42:33.933Z,1.13
2019-02-20T19:45:08.128Z,2.57
2019-02-20T19:47:36.530Z,5.90
2019-02-20T19:50:10.133Z,1.73
2019-02-20T19:52:50.246Z,5.60
2019-02-20T19:55:50.670Z,3.83
2019-02-20T19:58:09.633Z,3.20
2019-02-20T20:00:44.615Z,6.23
2019-02-20T20:03:25.560Z,5.83
2019-02-20T20:05:58.748Z,12.67
2019-02-20T20:08:29.954Z,16.43
2019-02-20T20:11:16.267Z,13.93
2019-02-20T20:13:49.680Z,7.90
2019-02-20T20:16:18.538Z,18.03
2019-02-20T20:19:02.385Z,11.37
2019-02-20T20:21:47.052Z,8.77
2019-02-20T20:24:22.757Z,11.30
2019-02-20T20:27:17.567Z,8.63
2019-02-20T20:33:57.522Z,11.60
2019-02-20T20:36:44.391Z,8.77
2019-02-20T20:39:40.770Z,9.43
2019-02-20T20:42:30.988Z,4.27
2019-02-20T20:45:02.796Z,5.57
2019-02-20T20:48:21.456Z,10.87
2019-02-20T20:51:24.692Z,7.03
2019-02-20T20:54:03.247Z,7.70
2019-02-20T20:56:31.343Z,5.10
2019-02-20T20:59:01.230Z,11.87
2019-02-20T21:01:39.950Z,11.80
2019-02-20T21:04:06.114Z,9.63
2019-02-20T21:06:35.408Z,11.30
2019-02-20T21:08:57.217Z,5.93
2019-02-20T21:11:41.888Z,5.03
2019-02-20T21:14:10.714Z,14.57
2019-02-20T21:16:45.687Z,4.00
2019-02-20T21:19:29.051Z,7.67
2019-02-20T21:21:51.574Z,7.40
2019-02-20T21:24:33.730Z,3.63
2019-02-20T21:27:17.206Z,6.50
2019-02-20T21:30:09.908Z,3.57
2019-02-20T21:32:41.794Z,5.77
2019-02-20T21:35:08.979Z,3.47
2019-02-20T21:37:47.296Z,3.23
2019-02-20T21:40:05.823Z,6.03
2019-02-20T21:42:43.662Z,4.20
2019-02-20T21:45:04.032Z,4.93
2019-02-20T21:47:38.195Z,4.03
2019-02-20T21:49:59.734Z,4.53
2019-02-20T21:52:43.072Z,5.10
2019-02-20T21:55:18.521Z,2.93
2019-02-20T21:57:49.494Z,5.33
2019-02-20T22:00:33.284Z,3.40
2019-02-20T22:03:10.899Z,5.47
2019-02-20T22:05:40.748Z,3.70
2019-02-20T22:08:24.068Z,6.03
2019-02-20T22:11:04.738Z,3.17
2019-02-20T22:13:41.620Z,2.97
2019-02-20T22:15:59.767Z,4.97
2019-02-20T22:18:26.844Z,4.80
2019-02-20T22:20:53.224Z,4.43
2019-02-20T22:23:23.267Z,4.67
2019-02-20T22:26:06.568Z,3.37
2019-02-20T22:28:49.407Z,4.83
2019-02-20T22:31:18.507Z,5.27
2019-02-20T22:33:32.979Z,5.03
2019-02-20T22:36:05.592Z,7.10
2019-02-20T22:38:50.040Z,6.03
2019-02-20T22:41:31.747Z,5.43
2019-02-20T22:44:10.445Z,3.73
2019-02-20T22:46:21.710Z,3.00
2019-02-20T22:49:05.006Z,5.60
2019-02-20T22:51:33.483Z,7.27
2019-02-20T22:54:05.693Z,6.87
2019-02-20T22:56:29.607Z,4.77
2019-02-20T22:59:00.317Z,2.30
2019-02-20T23:01:43.671Z,4.43
2019-02-20T23:04:03.384Z,2.47
2019-02-20T23:06:38.508Z,2.53
2019-02-20T23:09:12.826Z,7.20
2019-02-20T23:11:56.264Z,3.30
2019-02-20T23:14:10.118Z,4.80
2019-02-20T23:16:15.188Z,3.80
2019-02-20T23:18:20.307Z,4.43
2019-02-20T23:20:25.297Z,3.67
2019-02-20T23:22:30.167Z,2.33
2019-02-20T23:24:34.990Z,4.27
2019-02-20T23:26:39.827Z,4.60
2019-02-20T23:28:44.766Z,5.23
2019-02-20T23:30:49.795Z,4.70
2019-02-20T23:32:56.195Z,2.63
2019-02-20T23:35:01.074Z,6.13
2019-02-20T23:37:07.981Z,2.50
2019-02-20T23:39:12.729Z,3.13
2019-02-20T23:41:17.614Z,4.43
2019-02-20T23:43:22.542Z,4.17
2019-02-20T23:45:27.337Z,2.83
2019-02-20T23:47:32.180Z,3.93
2019-02-20T23:49:36.929Z,5.00
2019-02-20T23:51:41.713Z,5.00
2019-02-20T23:53:46.533Z,11.10
2019-02-20T23:55:51.413Z,4.30
2019-02-20T23:57:56.206Z,4.37
